sensor_id;sensor_type;location;lat;lon;timestamp;P1;durP1;ratioP1;P2;durP2;ratioP2
71108;SDS011;59614;51.012;-1.648;2022-08-19T00:01:22;8.35;;;2.92;;
71108;SDS011;59614;51.012;-1.648;2022-08-19T00:03:48;8.27;;;3.03;;
71108;SDS011;59614;51.012;-1.648;2022-08-19T00:06:14;8.52;;;2.90;;
71108;SDS011;59614;51.012;-1.648;2022-08-19T00:08:40;11.65;;;2.88;;
71108;SDS011;59614;51.012;-1.648;2022-08-19T00:11:05;8.20;;;2.83;;
71108;SDS011;59614;51.012;-1.648;2022-08-19T00:13:32;5.85;;;2.17;;
71108;SDS011;59614;51.012;-1.648;2022-08-19T00:15:58;11.48;;;2.85;;
71108;SDS011;59614;51.012;-1.648;2022-08-19T00:18:24;8.50;;;2.63;;
71108;SDS011;59614;51.012;-1.648;2022-08-19T00:20:50;6.30;;;2.50;;
71108;SDS011;59614;51.012;-1.648;2022-08-19T00:23:16;11.65;;;2.63;;
71108;SDS011;59614;51.012;-1.648;2022-08-19T00:25:41;9.38;;;2.88;;
71108;SDS011;59614;51.012;-1.648;2022-08-19T00:28:07;6.38;;;2.47;;
71108;SDS011;59614;51.012;-1.648;2022-08-19T00:30:32;11.43;;;2.80;;
71108;SDS011;59614;51.012;-1.648;2022-08-19T00:32:58;6.32;;;2.42;;
71108;SDS011;59614;51.012;-1.648;2022-08-19T00:35:24;10.18;;;2.30;;
71108;SDS011;59614;51.012;-1.648;2022-08-19T00:37:52;6.15;;;2.38;;
71108;SDS011;59614;51.012;-1.648;2022-08-19T00:40:18;8.32;;;2.30;;
71108;SDS011;59614;51.012;-1.648;2022-08-19T00:42:44;10.52;;;2.65;;
71108;SDS011;59614;51.012;-1.648;2022-08-19T00:45:18;9.93;;;2.60;;
71108;SDS011;59614;51.012;-1.648;2022-08-19T00:47:46;8.52;;;2.55;;
71108;SDS011;59614;51.012;-1.648;2022-08-19T00:50:13;8.40;;;2.50;;
71108;SDS011;59614;51.012;-1.648;2022-08-19T00:52:42;6.00;;;2.30;;
71108;SDS011;59614;51.012;-1.648;2022-08-19T00:55:15;7.30;;;2.00;;
71108;SDS011;59614;51.012;-1.648;2022-08-19T00:57:46;6.88;;;2.50;;
71108;SDS011;59614;51.012;-1.648;2022-08-19T01:00:16;6.25;;;2.58;;
71108;SDS011;59614;51.012;-1.648;2022-08-19T01:02:43;6.63;;;2.13;;
71108;SDS011;59614;51.012;-1.648;2022-08-19T01:05:10;4.65;;;2.17;;
71108;SDS011;59614;51.012;-1.648;2022-08-19T01:07:40;6.53;;;2.38;;
71108;SDS011;59614;51.012;-1.648;2022-08-19T01:10:08;6.55;;;2.55;;
71108;SDS011;59614;51.012;-1.648;2022-08-19T01:12:36;5.95;;;2.25;;
71108;SDS011;59614;51.012;-1.648;2022-08-19T01:15:03;6.32;;;2.47;;
71108;SDS011;59614;51.012;-1.648;2022-08-19T01:17:31;5.40;;;2.10;;
71108;SDS011;59614;51.012;-1.648;2022-08-19T01:19:57;3.80;;;1.85;;
71108;SDS011;59614;51.012;-1.648;2022-08-19T01:24:48;6.63;;;2.13;;
71108;SDS011;59614;51.012;-1.648;2022-08-19T01:27:14;7.90;;;2.63;;
71108;SDS011;59614;51.012;-1.648;2022-08-19T01:29:40;4.82;;;2.20;;
71108;SDS011;59614;51.012;-1.648;2022-08-19T01:32:07;7.05;;;2.38;;
71108;SDS011;59614;51.012;-1.648;2022-08-19T01:34:36;7.65;;;2.28;;
71108;SDS011;59614;51.012;-1.648;2022-08-19T01:37:06;4.90;;;2.10;;
71108;SDS011;59614;51.012;-1.648;2022-08-19T01:39:33;5.65;;;2.38;;
71108;SDS011;59614;51.012;-1.648;2022-08-19T01:41:59;4.35;;;2.03;;
71108;SDS011;59614;51.012;-1.648;2022-08-19T01:44:28;7.28;;;2.40;;
71108;SDS011;59614;51.012;-1.648;2022-08-19T01:46:53;8.77;;;2.42;;
71108;SDS011;59614;51.012;-1.648;2022-08-19T01:49:20;6.95;;;2.30;;
71108;SDS011;59614;51.012;-1.648;2022-08-19T01:51:48;5.22;;;2.17;;
71108;SDS011;59614;51.012;-1.648;2022-08-19T01:54:15;7.38;;;2.85;;
71108;SDS011;59614;51.012;-1.648;2022-08-19T01:56:41;7.93;;;2.70;;
71108;SDS011;59614;51.012;-1.648;2022-08-19T01:59:08;5.50;;;2.17;;
71108;SDS011;59614;51.012;-1.648;2022-08-19T02:01:37;6.18;;;2.38;;
71108;SDS011;59614;51.012;-1.648;2022-08-19T02:04:02;4.75;;;2.20;;
71108;SDS011;59614;51.012;-1.648;2022-08-19T02:06:28;4.72;;;2.00;;
71108;SDS011;59614;51.012;-1.648;2022-08-19T02:08:55;4.75;;;2.15;;
71108;SDS011;59614;51.012;-1.648;2022-08-19T02:11:22;4.28;;;2.13;;
71108;SDS011;59614;51.012;-1.648;2022-08-19T02:13:53;7.68;;;2.38;;
71108;SDS011;59614;51.012;-1.648;2022-08-19T02:16:19;4.88;;;2.13;;
71108;SDS011;59614;51.012;-1.648;2022-08-19T02:18:46;5.25;;;2.40;;
71108;SDS011;59614;51.012;-1.648;2022-08-19T02:21:13;4.50;;;2.03;;
71108;SDS011;59614;51.012;-1.648;2022-08-19T02:23:40;5.85;;;2.08;;
71108;SDS011;59614;51.012;-1.648;2022-08-19T02:26:06;6.38;;;2.45;;
71108;SDS011;59614;51.012;-1.648;2022-08-19T02:28:31;5.70;;;2.00;;
71108;SDS011;59614;51.012;-1.648;2022-08-19T02:30:57;3.67;;;1.85;;
71108;SDS011;59614;51.012;-1.648;2022-08-19T02:33:23;5.25;;;1.98;;
71108;SDS011;59614;51.012;-1.648;2022-08-19T02:35:49;4.15;;;2.00;;
71108;SDS011;59614;51.012;-1.648;2022-08-19T02:38:15;4.32;;;2.00;;
71108;SDS011;59614;51.012;-1.648;2022-08-19T02:40:53;3.55;;;1.75;;
71108;SDS011;59614;51.012;-1.648;2022-08-19T02:43:20;3.85;;;1.83;;
71108;SDS011;59614;51.012;-1.648;2022-08-19T02:45:47;3.13;;;1.80;;
71108;SDS011;59614;51.012;-1.648;2022-08-19T02:48:14;4.03;;;1.80;;
71108;SDS011;59614;51.012;-1.648;2022-08-19T02:50:44;4.60;;;2.00;;
71108;SDS011;59614;51.012;-1.648;2022-08-19T02:53:10;3.33;;;1.85;;
71108;SDS011;59614;51.012;-1.648;2022-08-19T02:55:36;3.42;;;1.80;;
71108;SDS011;59614;51.012;-1.648;2022-08-19T02:58:08;3.42;;;1.80;;
71108;SDS011;59614;51.012;-1.648;2022-08-19T03:00:33;5.10;;;1.95;;
71108;SDS011;59614;51.012;-1.648;2022-08-19T03:02:58;4.57;;;2.03;;
71108;SDS011;59614;51.012;-1.648;2022-08-19T03:05:25;4.15;;;1.90;;
71108;SDS011;59614;51.012;-1.648;2022-08-19T03:07:51;4.93;;;1.95;;
71108;SDS011;59614;51.012;-1.648;2022-08-19T03:10:17;4.50;;;1.98;;
71108;SDS011;59614;51.012;-1.648;2022-08-19T03:12:43;5.20;;;2.00;;
71108;SDS011;59614;51.012;-1.648;2022-08-19T03:15:10;4.40;;;1.80;;
71108;SDS011;59614;51.012;-1.648;2022-08-19T03:17:35;5.47;;;2.05;;
71108;SDS011;59614;51.012;-1.648;2022-08-19T03:20:01;4.63;;;2.00;;
71108;SDS011;59614;51.012;-1.648;2022-08-19T03:22:26;3.55;;;1.80;;
71108;SDS011;59614;51.012;-1.648;2022-08-19T03:24:52;3.15;;;1.90;;
71108;SDS011;59614;51.012;-1.648;2022-08-19T03:27:18;3.28;;;1.55;;
71108;SDS011;59614;51.012;-1.648;2022-08-19T03:29:44;3.97;;;1.70;;
71108;SDS011;59614;51.012;-1.648;2022-08-19T03:32:10;5.03;;;1.67;;
71108;SDS011;59614;51.012;-1.648;2022-08-19T03:34:37;4.13;;;1.80;;
71108;SDS011;59614;51.012;-1.648;2022-08-19T03:37:07;3.83;;;1.80;;
71108;SDS011;59614;51.012;-1.648;2022-08-19T03:39:36;2.88;;;1.55;;
71108;SDS011;59614;51.012;-1.648;2022-08-19T03:42:03;4.05;;;1.70;;
71108;SDS011;59614;51.012;-1.648;2022-08-19T03:44:30;3.97;;;1.52;;
71108;SDS011;59614;51.012;-1.648;2022-08-19T03:46:57;3.43;;;1.73;;
71108;SDS011;59614;51.012;-1.648;2022-08-19T03:49:25;3.35;;;1.63;;
71108;SDS011;59614;51.012;-1.648;2022-08-19T03:51:53;3.35;;;1.67;;
71108;SDS011;59614;51.012;-1.648;2022-08-19T03:54:21;3.75;;;1.60;;
71108;SDS011;59614;51.012;-1.648;2022-08-19T03:56:51;1.65;;;1.33;;
71108;SDS011;59614;51.012;-1.648;2022-08-19T03:59:23;2.88;;;1.40;;
71108;SDS011;59614;51.012;-1.648;2022-08-19T04:01:53;2.20;;;1.33;;
71108;SDS011;59614;51.012;-1.648;2022-08-19T04:04:20;2.70;;;1.40;;
71108;SDS011;59614;51.012;-1.648;2022-08-19T04:06:47;2.95;;;1.20;;
71108;SDS011;59614;51.012;-1.648;2022-08-19T04:09:13;3.20;;;1.48;;
71108;SDS011;59614;51.012;-1.648;2022-08-19T04:11:41;5.53;;;1.58;;
71108;SDS011;59614;51.012;-1.648;2022-08-19T04:14:22;2.42;;;1.10;;
71108;SDS011;59614;51.012;-1.648;2022-08-19T04:16:55;7.20;;;1.50;;
71108;SDS011;59614;51.012;-1.648;2022-08-19T04:19:20;2.35;;;1.23;;
71108;SDS011;59614;51.012;-1.648;2022-08-19T04:21:48;3.10;;;1.33;;
71108;SDS011;59614;51.012;-1.648;2022-08-19T04:24:15;3.60;;;1.40;;
71108;SDS011;59614;51.012;-1.648;2022-08-19T04:26:41;3.35;;;1.30;;
71108;SDS011;59614;51.012;-1.648;2022-08-19T04:29:09;6.40;;;1.70;;
71108;SDS011;59614;51.012;-1.648;2022-08-19T04:31:37;1.85;;;1.30;;
71108;SDS011;59614;51.012;-1.648;2022-08-19T04:34:08;2.45;;;1.20;;
71108;SDS011;59614;51.012;-1.648;2022-08-19T04:36:36;3.53;;;1.60;;
71108;SDS011;59614;51.012;-1.648;2022-08-19T04:39:11;4.82;;;1.70;;
71108;SDS011;59614;51.012;-1.648;2022-08-19T04:41:39;4.00;;;1.73;;
71108;SDS011;59614;51.012;-1.648;2022-08-19T04:44:23;4.85;;;1.67;;
71108;SDS011;59614;51.012;-1.648;2022-08-19T04:46:49;4.45;;;1.20;;
71108;SDS011;59614;51.012;-1.648;2022-08-19T04:49:16;3.40;;;1.75;;
71108;SDS011;59614;51.012;-1.648;2022-08-19T04:51:43;5.65;;;1.40;;
71108;SDS011;59614;51.012;-1.648;2022-08-19T04:54:10;3.45;;;1.52;;
71108;SDS011;59614;51.012;-1.648;2022-08-19T04:56:35;2.63;;;1.40;;
71108;SDS011;59614;51.012;-1.648;2022-08-19T04:59:01;4.80;;;1.58;;
71108;SDS011;59614;51.012;-1.648;2022-08-19T05:01:30;2.47;;;1.25;;
71108;SDS011;59614;51.012;-1.648;2022-08-19T05:03:58;3.58;;;1.63;;
71108;SDS011;59614;51.012;-1.648;2022-08-19T05:08:51;3.05;;;1.38;;
71108;SDS011;59614;51.012;-1.648;2022-08-19T05:11:26;4.25;;;1.60;;
71108;SDS011;59614;51.012;-1.648;2022-08-19T05:13:53;3.20;;;1.38;;
71108;SDS011;59614;51.012;-1.648;2022-08-19T05:16:20;3.25;;;1.52;;
71108;SDS011;59614;51.012;-1.648;2022-08-19T05:18:47;3.33;;;1.50;;
71108;SDS011;59614;51.012;-1.648;2022-08-19T05:21:31;4.38;;;1.52;;
71108;SDS011;59614;51.012;-1.648;2022-08-19T05:24:16;2.78;;;1.45;;
71108;SDS011;59614;51.012;-1.648;2022-08-19T05:26:44;3.33;;;1.60;;
71108;SDS011;59614;51.012;-1.648;2022-08-19T05:29:12;3.00;;;1.40;;
71108;SDS011;59614;51.012;-1.648;2022-08-19T05:31:40;6.43;;;1.55;;
71108;SDS011;59614;51.012;-1.648;2022-08-19T05:34:06;2.45;;;1.40;;
71108;SDS011;59614;51.012;-1.648;2022-08-19T05:36:38;4.00;;;1.40;;
71108;SDS011;59614;51.012;-1.648;2022-08-19T05:39:10;6.43;;;1.30;;
71108;SDS011;59614;51.012;-1.648;2022-08-19T05:41:42;2.05;;;1.40;;
71108;SDS011;59614;51.012;-1.648;2022-08-19T05:44:09;3.08;;;1.50;;
71108;SDS011;59614;51.012;-1.648;2022-08-19T05:46:35;4.35;;;1.73;;
71108;SDS011;59614;51.012;-1.648;2022-08-19T05:49:03;4.78;;;1.70;;
71108;SDS011;59614;51.012;-1.648;2022-08-19T05:51:29;4.05;;;1.70;;
71108;SDS011;59614;51.012;-1.648;2022-08-19T05:53:55;5.65;;;1.80;;
71108;SDS011;59614;51.012;-1.648;2022-08-19T05:56:20;5.00;;;1.80;;
71108;SDS011;59614;51.012;-1.648;2022-08-19T05:58:46;5.60;;;1.80;;
71108;SDS011;59614;51.012;-1.648;2022-08-19T06:01:13;6.53;;;2.03;;
71108;SDS011;59614;51.012;-1.648;2022-08-19T06:03:41;5.55;;;1.95;;
71108;SDS011;59614;51.012;-1.648;2022-08-19T06:06:07;6.85;;;2.00;;
71108;SDS011;59614;51.012;-1.648;2022-08-19T06:08:34;8.37;;;2.10;;
71108;SDS011;59614;51.012;-1.648;2022-08-19T06:13:45;9.10;;;2.30;;
71108;SDS011;59614;51.012;-1.648;2022-08-19T06:16:13;9.48;;;2.67;;
71108;SDS011;59614;51.012;-1.648;2022-08-19T06:18:46;7.63;;;2.30;;
71108;SDS011;59614;51.012;-1.648;2022-08-19T06:21:12;13.45;;;2.83;;
71108;SDS011;59614;51.012;-1.648;2022-08-19T06:23:37;8.25;;;2.53;;
71108;SDS011;59614;51.012;-1.648;2022-08-19T06:26:04;13.73;;;2.65;;
71108;SDS011;59614;51.012;-1.648;2022-08-19T06:28:30;8.40;;;2.45;;
71108;SDS011;59614;51.012;-1.648;2022-08-19T06:30:55;13.10;;;2.78;;
71108;SDS011;59614;51.012;-1.648;2022-08-19T06:33:20;11.40;;;3.33;;
71108;SDS011;59614;51.012;-1.648;2022-08-19T06:35:46;9.70;;;2.67;;
71108;SDS011;59614;51.012;-1.648;2022-08-19T06:38:11;11.40;;;2.75;;
71108;SDS011;59614;51.012;-1.648;2022-08-19T06:40:37;12.05;;;2.47;;
71108;SDS011;59614;51.012;-1.648;2022-08-19T06:43:03;12.02;;;2.60;;
71108;SDS011;59614;51.012;-1.648;2022-08-19T06:45:28;13.65;;;2.65;;
71108;SDS011;59614;51.012;-1.648;2022-08-19T06:47:55;11.38;;;2.72;;
71108;SDS011;59614;51.012;-1.648;2022-08-19T06:50:24;12.15;;;2.67;;
71108;SDS011;59614;51.012;-1.648;2022-08-19T06:52:49;9.15;;;3.03;;
71108;SDS011;59614;51.012;-1.648;2022-08-19T06:55:15;10.40;;;2.85;;
71108;SDS011;59614;51.012;-1.648;2022-08-19T06:57:41;10.27;;;2.70;;
71108;SDS011;59614;51.012;-1.648;2022-08-19T07:00:08;12.20;;;2.47;;
71108;SDS011;59614;51.012;-1.648;2022-08-19T07:02:39;9.18;;;2.38;;
71108;SDS011;59614;51.012;-1.648;2022-08-19T07:05:08;12.63;;;2.92;;
71108;SDS011;59614;51.012;-1.648;2022-08-19T07:07:34;11.70;;;2.75;;
71108;SDS011;59614;51.012;-1.648;2022-08-19T07:10:00;11.73;;;3.05;;
71108;SDS011;59614;51.012;-1.648;2022-08-19T07:12:26;10.73;;;2.95;;
71108;SDS011;59614;51.012;-1.648;2022-08-19T07:17:18;13.93;;;3.03;;
71108;SDS011;59614;51.012;-1.648;2022-08-19T07:19:45;13.23;;;3.28;;
71108;SDS011;59614;51.012;-1.648;2022-08-19T07:22:10;17.00;;;3.00;;
71108;SDS011;59614;51.012;-1.648;2022-08-19T07:24:36;15.88;;;3.00;;
71108;SDS011;59614;51.012;-1.648;2022-08-19T07:27:03;15.23;;;3.17;;
71108;SDS011;59614;51.012;-1.648;2022-08-19T07:29:30;17.23;;;3.33;;
71108;SDS011;59614;51.012;-1.648;2022-08-19T07:31:59;19.77;;;3.72;;
71108;SDS011;59614;51.012;-1.648;2022-08-19T07:34:26;12.57;;;3.40;;
71108;SDS011;59614;51.012;-1.648;2022-08-19T07:36:53;15.07;;;3.28;;
71108;SDS011;59614;51.012;-1.648;2022-08-19T07:39:23;13.60;;;3.55;;
71108;SDS011;59614;51.012;-1.648;2022-08-19T07:41:50;13.88;;;3.00;;
71108;SDS011;59614;51.012;-1.648;2022-08-19T07:44:16;16.05;;;3.28;;
71108;SDS011;59614;51.012;-1.648;2022-08-19T07:46:44;17.10;;;3.55;;
71108;SDS011;59614;51.012;-1.648;2022-08-19T07:49:11;13.82;;;3.67;;
71108;SDS011;59614;51.012;-1.648;2022-08-19T07:51:42;15.05;;;3.25;;
71108;SDS011;59614;51.012;-1.648;2022-08-19T07:54:08;13.68;;;3.53;;
71108;SDS011;59614;51.012;-1.648;2022-08-19T07:56:34;14.20;;;3.13;;
71108;SDS011;59614;51.012;-1.648;2022-08-19T07:58:59;17.27;;;3.20;;
71108;SDS011;59614;51.012;-1.648;2022-08-19T08:01:26;15.27;;;3.10;;
71108;SDS011;59614;51.012;-1.648;2022-08-19T08:03:52;15.43;;;3.38;;
71108;SDS011;59614;51.012;-1.648;2022-08-19T08:06:37;16.00;;;2.70;;
71108;SDS011;59614;51.012;-1.648;2022-08-19T08:09:26;11.68;;;3.00;;
71108;SDS011;59614;51.012;-1.648;2022-08-19T08:11:55;14.02;;;3.00;;
71108;SDS011;59614;51.012;-1.648;2022-08-19T08:14:35;16.98;;;3.08;;
71108;SDS011;59614;51.012;-1.648;2022-08-19T08:17:04;12.52;;;3.38;;
71108;SDS011;59614;51.012;-1.648;2022-08-19T08:19:30;10.85;;;2.97;;
71108;SDS011;59614;51.012;-1.648;2022-08-19T08:21:57;10.23;;;2.70;;
71108;SDS011;59614;51.012;-1.648;2022-08-19T08:26:50;11.82;;;2.83;;
71108;SDS011;59614;51.012;-1.648;2022-08-19T08:29:16;11.65;;;3.20;;
71108;SDS011;59614;51.012;-1.648;2022-08-19T08:31:42;9.70;;;3.03;;
71108;SDS011;59614;51.012;-1.648;2022-08-19T08:36:39;13.05;;;2.97;;
71108;SDS011;59614;51.012;-1.648;2022-08-19T08:39:10;9.65;;;2.75;;
71108;SDS011;59614;51.012;-1.648;2022-08-19T08:44:17;14.48;;;3.13;;
71108;SDS011;59614;51.012;-1.648;2022-08-19T08:46:51;11.45;;;2.97;;
71108;SDS011;59614;51.012;-1.648;2022-08-19T08:52:18;13.27;;;3.25;;
71108;SDS011;59614;51.012;-1.648;2022-08-19T08:54:49;13.68;;;3.00;;
71108;SDS011;59614;51.012;-1.648;2022-08-19T09:00:06;9.20;;;2.88;;
71108;SDS011;59614;51.012;-1.648;2022-08-19T09:02:35;7.55;;;2.88;;
71108;SDS011;59614;51.012;-1.648;2022-08-19T09:05:01;9.43;;;3.00;;
71108;SDS011;59614;51.012;-1.648;2022-08-19T09:10:10;9.75;;;2.75;;
71108;SDS011;59614;51.012;-1.648;2022-08-19T09:15:12;9.32;;;3.00;;
71108;SDS011;59614;51.012;-1.648;2022-08-19T09:17:39;11.82;;;3.50;;
71108;SDS011;59614;51.012;-1.648;2022-08-19T09:22:33;9.95;;;3.10;;
71108;SDS011;59614;51.012;-1.648;2022-08-19T09:25:00;12.40;;;3.47;;
71108;SDS011;59614;51.012;-1.648;2022-08-19T09:27:26;8.38;;;2.97;;
71108;SDS011;59614;51.012;-1.648;2022-08-19T09:29:54;14.02;;;3.55;;
71108;SDS011;59614;51.012;-1.648;2022-08-19T09:32:20;10.32;;;3.03;;
71108;SDS011;59614;51.012;-1.648;2022-08-19T09:34:47;10.30;;;3.00;;
71108;SDS011;59614;51.012;-1.648;2022-08-19T09:37:12;8.13;;;2.80;;
71108;SDS011;59614;51.012;-1.648;2022-08-19T09:39:39;13.32;;;3.38;;
71108;SDS011;59614;51.012;-1.648;2022-08-19T09:42:06;10.55;;;2.92;;
71108;SDS011;59614;51.012;-1.648;2022-08-19T09:44:37;9.63;;;2.92;;
71108;SDS011;59614;51.012;-1.648;2022-08-19T09:47:03;13.18;;;3.53;;
71108;SDS011;59614;51.012;-1.648;2022-08-19T09:49:29;9.88;;;3.05;;
71108;SDS011;59614;51.012;-1.648;2022-08-19T09:51:55;13.10;;;2.95;;
71108;SDS011;59614;51.012;-1.648;2022-08-19T09:54:21;12.77;;;3.38;;
71108;SDS011;59614;51.012;-1.648;2022-08-19T09:56:47;10.13;;;3.22;;
71108;SDS011;59614;51.012;-1.648;2022-08-19T09:59:12;22.10;;;3.47;;
71108;SDS011;59614;51.012;-1.648;2022-08-19T10:01:38;10.07;;;3.25;;
71108;SDS011;59614;51.012;-1.648;2022-08-19T10:04:03;10.15;;;2.95;;
71108;SDS011;59614;51.012;-1.648;2022-08-19T10:06:33;9.00;;;3.08;;
71108;SDS011;59614;51.012;-1.648;2022-08-19T10:08:59;12.23;;;3.03;;
71108;SDS011;59614;51.012;-1.648;2022-08-19T10:11:25;10.18;;;2.90;;
71108;SDS011;59614;51.012;-1.648;2022-08-19T10:13:51;10.98;;;3.03;;
71108;SDS011;59614;51.012;-1.648;2022-08-19T10:16:18;12.68;;;3.10;;
71108;SDS011;59614;51.012;-1.648;2022-08-19T10:18:48;8.65;;;2.88;;
71108;SDS011;59614;51.012;-1.648;2022-08-19T10:23:55;11.38;;;2.65;;
71108;SDS011;59614;51.012;-1.648;2022-08-19T10:26:25;16.25;;;3.30;;
71108;SDS011;59614;51.012;-1.648;2022-08-19T10:28:51;11.32;;;3.20;;
71108;SDS011;59614;51.012;-1.648;2022-08-19T10:31:27;10.07;;;2.83;;
71108;SDS011;59614;51.012;-1.648;2022-08-19T10:33:55;7.93;;;2.63;;
71108;SDS011;59614;51.012;-1.648;2022-08-19T10:36:28;11.15;;;2.90;;
71108;SDS011;59614;51.012;-1.648;2022-08-19T10:38:57;12.02;;;3.17;;
71108;SDS011;59614;51.012;-1.648;2022-08-19T10:41:27;10.57;;;2.80;;
71108;SDS011;59614;51.012;-1.648;2022-08-19T10:43:57;12.52;;;2.85;;
71108;SDS011;59614;51.012;-1.648;2022-08-19T10:46:25;9.13;;;2.80;;
71108;SDS011;59614;51.012;-1.648;2022-08-19T10:48:52;7.20;;;2.80;;
71108;SDS011;59614;51.012;-1.648;2022-08-19T10:51:18;7.93;;;2.80;;
71108;SDS011;59614;51.012;-1.648;2022-08-19T10:54:02;9.75;;;2.90;;
71108;SDS011;59614;51.012;-1.648;2022-08-19T10:56:29;10.25;;;2.80;;
71108;SDS011;59614;51.012;-1.648;2022-08-19T10:59:13;12.00;;;3.40;;
71108;SDS011;59614;51.012;-1.648;2022-08-19T11:01:40;9.47;;;2.90;;
71108;SDS011;59614;51.012;-1.648;2022-08-19T11:04:08;12.05;;;3.17;;
71108;SDS011;59614;51.012;-1.648;2022-08-19T11:06:36;8.00;;;2.90;;
71108;SDS011;59614;51.012;-1.648;2022-08-19T11:11:29;12.95;;;3.92;;
71108;SDS011;59614;51.012;-1.648;2022-08-19T11:13:55;13.95;;;3.15;;
71108;SDS011;59614;51.012;-1.648;2022-08-19T11:16:22;10.80;;;3.33;;
71108;SDS011;59614;51.012;-1.648;2022-08-19T11:18:52;10.52;;;2.85;;
71108;SDS011;59614;51.012;-1.648;2022-08-19T11:21:29;12.75;;;3.30;;
71108;SDS011;59614;51.012;-1.648;2022-08-19T11:23:58;10.15;;;3.28;;
71108;SDS011;59614;51.012;-1.648;2022-08-19T11:26:26;9.00;;;2.78;;
71108;SDS011;59614;51.012;-1.648;2022-08-19T11:28:52;9.15;;;2.72;;
71108;SDS011;59614;51.012;-1.648;2022-08-19T11:31:20;9.45;;;2.88;;
71108;SDS011;59614;51.012;-1.648;2022-08-19T11:33:47;8.32;;;2.88;;
71108;SDS011;59614;51.012;-1.648;2022-08-19T11:36:17;9.10;;;2.90;;
71108;SDS011;59614;51.012;-1.648;2022-08-19T11:38:44;15.85;;;2.88;;
71108;SDS011;59614;51.012;-1.648;2022-08-19T11:43:36;11.75;;;3.17;;
71108;SDS011;59614;51.012;-1.648;2022-08-19T11:46:05;13.97;;;3.20;;
71108;SDS011;59614;51.012;-1.648;2022-08-19T11:48:32;13.55;;;3.83;;
71108;SDS011;59614;51.012;-1.648;2022-08-19T11:50:58;10.25;;;3.03;;
71108;SDS011;59614;51.012;-1.648;2022-08-19T11:53:23;9.88;;;3.10;;
71108;SDS011;59614;51.012;-1.648;2022-08-19T11:55:49;14.30;;;3.80;;
71108;SDS011;59614;51.012;-1.648;2022-08-19T11:58:20;10.73;;;2.90;;
71108;SDS011;59614;51.012;-1.648;2022-08-19T12:00:46;13.88;;;3.17;;
71108;SDS011;59614;51.012;-1.648;2022-08-19T12:03:12;7.88;;;2.83;;
71108;SDS011;59614;51.012;-1.648;2022-08-19T12:05:39;9.60;;;3.00;;
71108;SDS011;59614;51.012;-1.648;2022-08-19T12:08:05;11.30;;;3.08;;
71108;SDS011;59614;51.012;-1.648;2022-08-19T12:10:31;7.65;;;3.08;;
71108;SDS011;59614;51.012;-1.648;2022-08-19T12:12:57;9.15;;;3.10;;
71108;SDS011;59614;51.012;-1.648;2022-08-19T12:15:22;6.63;;;2.60;;
71108;SDS011;59614;51.012;-1.648;2022-08-19T12:17:49;12.18;;;3.15;;
71108;SDS011;59614;51.012;-1.648;2022-08-19T12:20:14;9.38;;;2.70;;
71108;SDS011;59614;51.012;-1.648;2022-08-19T12:25:08;9.95;;;2.72;;
71108;SDS011;59614;51.012;-1.648;2022-08-19T12:27:35;8.68;;;3.20;;
71108;SDS011;59614;51.012;-1.648;2022-08-19T12:30:02;10.75;;;2.95;;
71108;SDS011;59614;51.012;-1.648;2022-08-19T12:32:28;12.63;;;3.17;;
71108;SDS011;59614;51.012;-1.648;2022-08-19T12:34:54;7.43;;;2.80;;
71108;SDS011;59614;51.012;-1.648;2022-08-19T12:37:19;8.00;;;2.80;;
71108;SDS011;59614;51.012;-1.648;2022-08-19T12:39:45;8.43;;;3.03;;
71108;SDS011;59614;51.012;-1.648;2022-08-19T12:42:11;10.32;;;2.60;;
71108;SDS011;59614;51.012;-1.648;2022-08-19T12:44:38;10.98;;;3.30;;
71108;SDS011;59614;51.012;-1.648;2022-08-19T12:47:06;11.43;;;2.53;;
71108;SDS011;59614;51.012;-1.648;2022-08-19T12:49:32;7.20;;;2.63;;
71108;SDS011;59614;51.012;-1.648;2022-08-19T12:52:01;9.43;;;2.58;;
71108;SDS011;59614;51.012;-1.648;2022-08-19T12:54:28;8.85;;;2.60;;
71108;SDS011;59614;51.012;-1.648;2022-08-19T12:56:55;20.75;;;2.88;;
71108;SDS011;59614;51.012;-1.648;2022-08-19T12:59:21;5.53;;;2.28;;
71108;SDS011;59614;51.012;-1.648;2022-08-19T13:01:47;27.65;;;3.80;;
71108;SDS011;59614;51.012;-1.648;2022-08-19T13:04:13;11.35;;;2.65;;
71108;SDS011;59614;51.012;-1.648;2022-08-19T13:06:38;12.82;;;2.45;;
71108;SDS011;59614;51.012;-1.648;2022-08-19T13:09:04;9.68;;;2.78;;
71108;SDS011;59614;51.012;-1.648;2022-08-19T13:11:30;8.23;;;2.30;;
71108;SDS011;59614;51.012;-1.648;2022-08-19T13:13:59;11.80;;;2.72;;
71108;SDS011;59614;51.012;-1.648;2022-08-19T13:16:25;8.98;;;2.80;;
71108;SDS011;59614;51.012;-1.648;2022-08-19T13:21:19;13.30;;;2.55;;
71108;SDS011;59614;51.012;-1.648;2022-08-19T13:23:46;12.00;;;2.90;;
71108;SDS011;59614;51.012;-1.648;2022-08-19T13:26:12;9.93;;;2.70;;
71108;SDS011;59614;51.012;-1.648;2022-08-19T13:28:38;9.10;;;2.70;;
71108;SDS011;59614;51.012;-1.648;2022-08-19T13:31:24;6.78;;;2.65;;
71108;SDS011;59614;51.012;-1.648;2022-08-19T13:34:09;8.43;;;2.53;;
71108;SDS011;59614;51.012;-1.648;2022-08-19T13:36:35;7.63;;;2.33;;
71108;SDS011;59614;51.012;-1.648;2022-08-19T13:39:02;8.38;;;2.78;;
71108;SDS011;59614;51.012;-1.648;2022-08-19T13:41:29;9.18;;;3.00;;
71108;SDS011;59614;51.012;-1.648;2022-08-19T13:43:54;8.02;;;2.60;;
71108;SDS011;59614;51.012;-1.648;2022-08-19T13:46:20;11.63;;;3.03;;
71108;SDS011;59614;51.012;-1.648;2022-08-19T13:48:46;12.43;;;3.42;;
71108;SDS011;59614;51.012;-1.648;2022-08-19T13:53:39;10.93;;;2.85;;
71108;SDS011;59614;51.012;-1.648;2022-08-19T13:56:07;14.18;;;3.20;;
71108;SDS011;59614;51.012;-1.648;2022-08-19T13:58:35;10.75;;;3.47;;
71108;SDS011;59614;51.012;-1.648;2022-08-19T14:01:02;12.68;;;2.97;;
71108;SDS011;59614;51.012;-1.648;2022-08-19T14:03:29;11.95;;;3.20;;
71108;SDS011;59614;51.012;-1.648;2022-08-19T14:05:55;11.80;;;3.20;;
71108;SDS011;59614;51.012;-1.648;2022-08-19T14:08:21;12.45;;;3.03;;
71108;SDS011;59614;51.012;-1.648;2022-08-19T14:10:47;9.68;;;3.30;;
71108;SDS011;59614;51.012;-1.648;2022-08-19T14:13:15;8.70;;;3.10;;
71108;SDS011;59614;51.012;-1.648;2022-08-19T14:15:42;10.20;;;3.38;;
71108;SDS011;59614;51.012;-1.648;2022-08-19T14:18:08;17.67;;;3.28;;
71108;SDS011;59614;51.012;-1.648;2022-08-19T14:20:34;17.90;;;3.47;;
71108;SDS011;59614;51.012;-1.648;2022-08-19T14:23:00;10.27;;;3.08;;
71108;SDS011;59614;51.012;-1.648;2022-08-19T14:25:27;9.25;;;3.10;;
71108;SDS011;59614;51.012;-1.648;2022-08-19T14:27:54;10.57;;;3.15;;
71108;SDS011;59614;51.012;-1.648;2022-08-19T14:30:22;10.45;;;2.97;;
71108;SDS011;59614;51.012;-1.648;2022-08-19T14:32:51;9.05;;;2.90;;
71108;SDS011;59614;51.012;-1.648;2022-08-19T14:35:17;11.20;;;3.33;;
71108;SDS011;59614;51.012;-1.648;2022-08-19T14:37:43;9.45;;;2.92;;
71108;SDS011;59614;51.012;-1.648;2022-08-19T14:40:09;9.95;;;3.25;;
71108;SDS011;59614;51.012;-1.648;2022-08-19T14:42:36;10.77;;;3.47;;
71108;SDS011;59614;51.012;-1.648;2022-08-19T14:45:02;8.55;;;2.90;;
71108;SDS011;59614;51.012;-1.648;2022-08-19T14:47:30;12.77;;;2.92;;
71108;SDS011;59614;51.012;-1.648;2022-08-19T14:49:55;13.05;;;3.25;;
71108;SDS011;59614;51.012;-1.648;2022-08-19T14:52:21;9.15;;;3.00;;
71108;SDS011;59614;51.012;-1.648;2022-08-19T14:54:47;11.13;;;3.03;;
71108;SDS011;59614;51.012;-1.648;2022-08-19T14:57:13;11.48;;;3.40;;
71108;SDS011;59614;51.012;-1.648;2022-08-19T14:59:40;12.95;;;3.90;;
71108;SDS011;59614;51.012;-1.648;2022-08-19T15:02:06;15.05;;;3.95;;
71108;SDS011;59614;51.012;-1.648;2022-08-19T15:04:31;11.55;;;3.40;;
71108;SDS011;59614;51.012;-1.648;2022-08-19T15:06:57;14.60;;;3.55;;
71108;SDS011;59614;51.012;-1.648;2022-08-19T15:09:23;9.73;;;3.35;;
71108;SDS011;59614;51.012;-1.648;2022-08-19T15:11:48;11.45;;;3.50;;
71108;SDS011;59614;51.012;-1.648;2022-08-19T15:14:14;10.68;;;3.22;;
71108;SDS011;59614;51.012;-1.648;2022-08-19T15:16:41;9.90;;;3.10;;